sensor_id;sensor_type;location;lat;lon;timestamp;temperature;humidity
32296;DHT22;18781;51.550;5.418;2022-12-17T00:02:08;4.00;70.70
32296;DHT22;18781;51.550;5.418;2022-12-17T00:04:52;4.10;70.80
32296;DHT22;18781;51.550;5.418;2022-12-17T00:07:36;4.00;70.80
32296;DHT22;18781;51.550;5.418;2022-12-17T00:10:20;4.10;71.00
32296;DHT22;18781;51.550;5.418;2022-12-17T00:13:04;4.00;71.50
32296;DHT22;18781;51.550;5.418;2022-12-17T00:15:51;4.10;71.00
32296;DHT22;18781;51.550;5.418;2022-12-17T00:18:35;4.00;70.90
32296;DHT22;18781;51.550;5.418;2022-12-17T00:21:19;4.10;71.00
32296;DHT22;18781;51.550;5.418;2022-12-17T00:24:04;4.10;71.00
32296;DHT22;18781;51.550;5.418;2022-12-17T00:26:48;4.10;71.00
32296;DHT22;18781;51.550;5.418;2022-12-17T00:29:33;4.10;71.10
32296;DHT22;18781;51.550;5.418;2022-12-17T00:32:17;4.10;71.10
32296;DHT22;18781;51.550;5.418;2022-12-17T00:35:02;4.10;71.10
32296;DHT22;18781;51.550;5.418;2022-12-17T00:37:46;4.10;71.10
32296;DHT22;18781;51.550;5.418;2022-12-17T00:40:30;4.10;71.10
32296;DHT22;18781;51.550;5.418;2022-12-17T00:43:14;4.10;71.60
32296;DHT22;18781;51.550;5.418;2022-12-17T00:45:58;4.10;71.10
32296;DHT22;18781;51.550;5.418;2022-12-17T00:48:43;4.10;71.10
32296;DHT22;18781;51.550;5.418;2022-12-17T00:51:28;4.10;71.00
32296;DHT22;18781;51.550;5.418;2022-12-17T00:54:12;4.10;71.00
32296;DHT22;18781;51.550;5.418;2022-12-17T00:56:56;4.10;71.00
32296;DHT22;18781;51.550;5.418;2022-12-17T00:59:40;4.10;71.00
32296;DHT22;18781;51.550;5.418;2022-12-17T01:02:24;4.10;71.00
32296;DHT22;18781;51.550;5.418;2022-12-17T01:05:09;4.10;71.10
32296;DHT22;18781;51.550;5.418;2022-12-17T01:07:54;4.10;71.00
32296;DHT22;18781;51.550;5.418;2022-12-17T01:10:38;4.20;71.10
32296;DHT22;18781;51.550;5.418;2022-12-17T01:13:23;4.10;71.00
32296;DHT22;18781;51.550;5.418;2022-12-17T01:16:09;4.10;71.00
32296;DHT22;18781;51.550;5.418;2022-12-17T01:18:54;4.20;71.10
32296;DHT22;18781;51.550;5.418;2022-12-17T01:21:39;4.20;71.00
32296;DHT22;18781;51.550;5.418;2022-12-17T01:24:23;4.10;70.90
32296;DHT22;18781;51.550;5.418;2022-12-17T01:27:08;4.20;71.00
32296;DHT22;18781;51.550;5.418;2022-12-17T01:29:52;4.20;71.00
32296;DHT22;18781;51.550;5.418;2022-12-17T01:32:47;4.10;71.00
32296;DHT22;18781;51.550;5.418;2022-12-17T01:35:32;4.10;70.90
32296;DHT22;18781;51.550;5.418;2022-12-17T01:38:18;4.20;70.90
32296;DHT22;18781;51.550;5.418;2022-12-17T01:41:03;4.10;70.90
32296;DHT22;18781;51.550;5.418;2022-12-17T01:43:48;4.10;70.90
32296;DHT22;18781;51.550;5.418;2022-12-17T01:46:35;4.10;70.90
32296;DHT22;18781;51.550;5.418;2022-12-17T01:49:21;4.10;70.90
32296;DHT22;18781;51.550;5.418;2022-12-17T01:52:21;4.10;70.90
32296;DHT22;18781;51.550;5.418;2022-12-17T01:55:06;4.10;70.90
32296;DHT22;18781;51.550;5.418;2022-12-17T01:57:50;4.10;70.80
32296;DHT22;18781;51.550;5.418;2022-12-17T02:00:34;4.10;70.90
32296;DHT22;18781;51.550;5.418;2022-12-17T02:03:18;4.10;70.90
32296;DHT22;18781;51.550;5.418;2022-12-17T02:06:10;4.10;70.90
32296;DHT22;18781;51.550;5.418;2022-12-17T02:09:11;4.10;70.90
32296;DHT22;18781;51.550;5.418;2022-12-17T02:17:54;4.10;70.80
32296;DHT22;18781;51.550;5.418;2022-12-17T02:20:43;4.10;70.90
32296;DHT22;18781;51.550;5.418;2022-12-17T02:23:41;4.00;71.40
32296;DHT22;18781;51.550;5.418;2022-12-17T02:26:56;4.00;70.80
32296;DHT22;18781;51.550;5.418;2022-12-17T02:29:52;4.00;71.00
32296;DHT22;18781;51.550;5.418;2022-12-17T02:32:40;4.00;70.90
32296;DHT22;18781;51.550;5.418;2022-12-17T02:35:40;4.00;70.90
32296;DHT22;18781;51.550;5.418;2022-12-17T02:38:27;4.00;70.80
32296;DHT22;18781;51.550;5.418;2022-12-17T02:41:27;4.00;70.80
32296;DHT22;18781;51.550;5.418;2022-12-17T02:44:14;4.00;70.80
32296;DHT22;18781;51.550;5.418;2022-12-17T02:47:02;4.00;70.90
32296;DHT22;18781;51.550;5.418;2022-12-17T02:49:47;4.00;70.90
32296;DHT22;18781;51.550;5.418;2022-12-17T02:52:33;4.00;71.10
32296;DHT22;18781;51.550;5.418;2022-12-17T02:55:19;4.00;71.00
32296;DHT22;18781;51.550;5.418;2022-12-17T02:58:03;4.00;70.90
32296;DHT22;18781;51.550;5.418;2022-12-17T03:00:47;3.90;70.90
32296;DHT22;18781;51.550;5.418;2022-12-17T03:03:31;3.90;70.90
32296;DHT22;18781;51.550;5.418;2022-12-17T03:06:15;3.90;70.90
32296;DHT22;18781;51.550;5.418;2022-12-17T03:08:59;3.90;70.90
32296;DHT22;18781;51.550;5.418;2022-12-17T03:11:43;3.90;70.90
32296;DHT22;18781;51.550;5.418;2022-12-17T03:14:27;3.90;70.90
32296;DHT22;18781;51.550;5.418;2022-12-17T03:17:11;3.90;70.90
32296;DHT22;18781;51.550;5.418;2022-12-17T03:19:55;3.90;70.90
32296;DHT22;18781;51.550;5.418;2022-12-17T03:22:39;3.90;70.90
32296;DHT22;18781;51.550;5.418;2022-12-17T03:25:23;3.90;70.90
32296;DHT22;18781;51.550;5.418;2022-12-17T03:28:10;3.80;70.90
32296;DHT22;18781;51.550;5.418;2022-12-17T03:30:57;3.80;70.90
32296;DHT22;18781;51.550;5.418;2022-12-17T03:33:42;3.80;70.90
32296;DHT22;18781;51.550;5.418;2022-12-17T03:36:26;3.80;70.90
32296;DHT22;18781;51.550;5.418;2022-12-17T03:39:11;3.80;70.90
32296;DHT22;18781;51.550;5.418;2022-12-17T03:41:55;3.80;70.90
32296;DHT22;18781;51.550;5.418;2022-12-17T03:44:39;3.80;70.90
32296;DHT22;18781;51.550;5.418;2022-12-17T03:47:23;3.80;70.90
32296;DHT22;18781;51.550;5.418;2022-12-17T03:50:07;3.80;70.90
32296;DHT22;18781;51.550;5.418;2022-12-17T03:52:51;3.80;70.90
32296;DHT22;18781;51.550;5.418;2022-12-17T03:55:35;3.80;70.90
32296;DHT22;18781;51.550;5.418;2022-12-17T03:58:19;3.70;70.80
32296;DHT22;18781;51.550;5.418;2022-12-17T04:01:03;3.70;70.80
32296;DHT22;18781;51.550;5.418;2022-12-17T04:03:47;3.70;70.80
32296;DHT22;18781;51.550;5.418;2022-12-17T04:06:31;3.70;70.80
32296;DHT22;18781;51.550;5.418;2022-12-17T04:09:15;3.70;70.80
32296;DHT22;18781;51.550;5.418;2022-12-17T04:12:00;3.70;70.80
32296;DHT22;18781;51.550;5.418;2022-12-17T04:14:44;3.70;70.80
32296;DHT22;18781;51.550;5.418;2022-12-17T04:17:28;3.70;70.80
32296;DHT22;18781;51.550;5.418;2022-12-17T04:20:12;3.60;70.80
32296;DHT22;18781;51.550;5.418;2022-12-17T04:22:56;3.60;70.80
32296;DHT22;18781;51.550;5.418;2022-12-17T04:25:40;3.60;71.30
32296;DHT22;18781;51.550;5.418;2022-12-17T04:28:24;3.60;70.80
32296;DHT22;18781;51.550;5.418;2022-12-17T04:31:08;3.60;70.80
32296;DHT22;18781;51.550;5.418;2022-12-17T04:33:52;3.60;70.80
32296;DHT22;18781;51.550;5.418;2022-12-17T04:36:36;3.60;70.90
32296;DHT22;18781;51.550;5.418;2022-12-17T04:39:20;3.60;70.90
32296;DHT22;18781;51.550;5.418;2022-12-17T04:42:04;3.60;70.90
32296;DHT22;18781;51.550;5.418;2022-12-17T04:44:48;3.50;70.90
32296;DHT22;18781;51.550;5.418;2022-12-17T04:47:32;3.50;70.90
32296;DHT22;18781;51.550;5.418;2022-12-17T04:50:16;3.50;70.90
32296;DHT22;18781;51.550;5.418;2022-12-17T04:53:01;3.50;70.90
32296;DHT22;18781;51.550;5.418;2022-12-17T04:55:46;3.50;71.00
32296;DHT22;18781;51.550;5.418;2022-12-17T04:58:30;3.50;71.00
32296;DHT22;18781;51.550;5.418;2022-12-17T05:01:15;3.50;71.00
32296;DHT22;18781;51.550;5.418;2022-12-17T05:03:59;3.50;71.10
32296;DHT22;18781;51.550;5.418;2022-12-17T05:06:43;3.50;71.00
32296;DHT22;18781;51.550;5.418;2022-12-17T05:09:27;3.50;71.00
32296;DHT22;18781;51.550;5.418;2022-12-17T05:12:11;3.50;71.00
32296;DHT22;18781;51.550;5.418;2022-12-17T05:14:55;3.40;71.00
32296;DHT22;18781;51.550;5.418;2022-12-17T05:17:39;3.40;71.00
32296;DHT22;18781;51.550;5.418;2022-12-17T05:20:23;3.40;71.20
32296;DHT22;18781;51.550;5.418;2022-12-17T05:23:08;3.40;71.10
32296;DHT22;18781;51.550;5.418;2022-12-17T05:26:18;3.40;71.10
32296;DHT22;18781;51.550;5.418;2022-12-17T05:29:03;3.40;71.20
32296;DHT22;18781;51.550;5.418;2022-12-17T05:31:48;3.40;71.10
32296;DHT22;18781;51.550;5.418;2022-12-17T05:34:33;3.40;71.10
32296;DHT22;18781;51.550;5.418;2022-12-17T05:37:17;3.40;71.10
32296;DHT22;18781;51.550;5.418;2022-12-17T05:40:01;3.40;71.10
32296;DHT22;18781;51.550;5.418;2022-12-17T05:43:14;3.40;71.00
32296;DHT22;18781;51.550;5.418;2022-12-17T05:45:59;3.40;71.20
32296;DHT22;18781;51.550;5.418;2022-12-17T05:48:43;3.40;71.00
32296;DHT22;18781;51.550;5.418;2022-12-17T05:51:27;3.40;71.00
32296;DHT22;18781;51.550;5.418;2022-12-17T05:54:11;3.40;71.10
32296;DHT22;18781;51.550;5.418;2022-12-17T05:56:55;3.40;71.10
32296;DHT22;18781;51.550;5.418;2022-12-17T05:59:39;3.30;71.10
32296;DHT22;18781;51.550;5.418;2022-12-17T06:02:24;3.40;71.10
32296;DHT22;18781;51.550;5.418;2022-12-17T06:05:08;3.30;71.10
32296;DHT22;18781;51.550;5.418;2022-12-17T06:07:53;3.30;71.10
32296;DHT22;18781;51.550;5.418;2022-12-17T06:10:44;3.30;71.10
32296;DHT22;18781;51.550;5.418;2022-12-17T06:13:28;3.30;71.00
32296;DHT22;18781;51.550;5.418;2022-12-17T06:16:12;3.30;71.10
32296;DHT22;18781;51.550;5.418;2022-12-17T06:18:56;3.30;71.10
32296;DHT22;18781;51.550;5.418;2022-12-17T06:21:40;3.30;71.00
32296;DHT22;18781;51.550;5.418;2022-12-17T06:24:24;3.30;71.10
32296;DHT22;18781;51.550;5.418;2022-12-17T06:27:08;3.20;71.00
32296;DHT22;18781;51.550;5.418;2022-12-17T06:29:52;3.30;71.20
32296;DHT22;18781;51.550;5.418;2022-12-17T06:32:36;3.20;71.40
32296;DHT22;18781;51.550;5.418;2022-12-17T06:35:21;3.20;71.30
32296;DHT22;18781;51.550;5.418;2022-12-17T06:38:06;3.20;71.40
32296;DHT22;18781;51.550;5.418;2022-12-17T06:40:50;3.20;71.50
32296;DHT22;18781;51.550;5.418;2022-12-17T06:43:35;3.30;71.60
32296;DHT22;18781;51.550;5.418;2022-12-17T06:46:19;3.20;71.40
32296;DHT22;18781;51.550;5.418;2022-12-17T06:49:03;3.30;71.30
32296;DHT22;18781;51.550;5.418;2022-12-17T06:51:47;3.20;71.30
32296;DHT22;18781;51.550;5.418;2022-12-17T06:54:31;3.20;71.20
32296;DHT22;18781;51.550;5.418;2022-12-17T06:57:15;3.30;71.20
32296;DHT22;18781;51.550;5.418;2022-12-17T06:59:59;3.20;71.10
32296;DHT22;18781;51.550;5.418;2022-12-17T07:02:44;3.30;71.70
32296;DHT22;18781;51.550;5.418;2022-12-17T07:05:28;3.20;71.20
32296;DHT22;18781;51.550;5.418;2022-12-17T07:08:12;3.20;71.10
32296;DHT22;18781;51.550;5.418;2022-12-17T07:11:00;3.20;71.10
32296;DHT22;18781;51.550;5.418;2022-12-17T07:13:44;3.20;71.10
32296;DHT22;18781;51.550;5.418;2022-12-17T07:16:28;3.20;71.10
32296;DHT22;18781;51.550;5.418;2022-12-17T07:19:12;3.20;71.20
32296;DHT22;18781;51.550;5.418;2022-12-17T07:21:56;3.20;71.20
32296;DHT22;18781;51.550;5.418;2022-12-17T07:24:40;3.20;71.20
32296;DHT22;18781;51.550;5.418;2022-12-17T07:27:25;3.20;71.20
32296;DHT22;18781;51.550;5.418;2022-12-17T07:30:09;3.20;71.30
32296;DHT22;18781;51.550;5.418;2022-12-17T07:32:59;3.20;71.80
32296;DHT22;18781;51.550;5.418;2022-12-17T07:35:43;3.20;71.30
32296;DHT22;18781;51.550;5.418;2022-12-17T07:38:27;3.20;71.40
32296;DHT22;18781;51.550;5.418;2022-12-17T07:41:12;3.20;71.30
32296;DHT22;18781;51.550;5.418;2022-12-17T07:43:56;3.20;71.30
32296;DHT22;18781;51.550;5.418;2022-12-17T07:46:40;3.20;71.30
32296;DHT22;18781;51.550;5.418;2022-12-17T07:49:24;3.20;71.20
32296;DHT22;18781;51.550;5.418;2022-12-17T07:52:08;3.20;71.20
32296;DHT22;18781;51.550;5.418;2022-12-17T07:54:52;3.20;71.30
32296;DHT22;18781;51.550;5.418;2022-12-17T07:57:36;3.20;71.40
32296;DHT22;18781;51.550;5.418;2022-12-17T08:00:20;3.20;71.30
32296;DHT22;18781;51.550;5.418;2022-12-17T08:03:04;3.20;71.40
32296;DHT22;18781;51.550;5.418;2022-12-17T08:05:48;3.20;71.40
32296;DHT22;18781;51.550;5.418;2022-12-17T08:08:32;3.20;71.40
32296;DHT22;18781;51.550;5.418;2022-12-17T08:11:16;3.20;71.50
32296;DHT22;18781;51.550;5.418;2022-12-17T08:14:01;3.20;71.50
32296;DHT22;18781;51.550;5.418;2022-12-17T08:16:45;3.20;71.50
32296;DHT22;18781;51.550;5.418;2022-12-17T08:19:29;3.20;71.40
32296;DHT22;18781;51.550;5.418;2022-12-17T08:22:13;3.20;71.40
32296;DHT22;18781;51.550;5.418;2022-12-17T08:24:57;3.20;71.50
32296;DHT22;18781;51.550;5.418;2022-12-17T08:27:41;3.20;71.60
32296;DHT22;18781;51.550;5.418;2022-12-17T08:30:25;3.20;71.60
32296;DHT22;18781;51.550;5.418;2022-12-17T08:33:10;3.20;71.50
32296;DHT22;18781;51.550;5.418;2022-12-17T08:35:56;3.20;71.50
32296;DHT22;18781;51.550;5.418;2022-12-17T08:38:41;3.20;71.50
32296;DHT22;18781;51.550;5.418;2022-12-17T08:41:25;3.20;71.40
32296;DHT22;18781;51.550;5.418;2022-12-17T08:44:09;3.20;71.50
32296;DHT22;18781;51.550;5.418;2022-12-17T08:46:53;3.20;71.50
32296;DHT22;18781;51.550;5.418;2022-12-17T08:49:37;3.20;71.40
32296;DHT22;18781;51.550;5.418;2022-12-17T08:52:21;3.20;71.50
32296;DHT22;18781;51.550;5.418;2022-12-17T08:55:16;3.20;71.50
32296;DHT22;18781;51.550;5.418;2022-12-17T08:58:00;3.20;71.50
32296;DHT22;18781;51.550;5.418;2022-12-17T09:00:44;3.20;71.50
32296;DHT22;18781;51.550;5.418;2022-12-17T09:03:29;3.20;71.40
32296;DHT22;18781;51.550;5.418;2022-12-17T09:06:13;3.20;71.50
32296;DHT22;18781;51.550;5.418;2022-12-17T09:08:57;3.20;71.40
32296;DHT22;18781;51.550;5.418;2022-12-17T09:11:41;3.20;71.40
32296;DHT22;18781;51.550;5.418;2022-12-17T09:14:26;3.20;71.40
32296;DHT22;18781;51.550;5.418;2022-12-17T09:17:10;3.10;71.30
32296;DHT22;18781;51.550;5.418;2022-12-17T09:19:54;3.20;71.40
32296;DHT22;18781;51.550;5.418;2022-12-17T09:22:38;3.20;71.40
32296;DHT22;18781;51.550;5.418;2022-12-17T09:25:22;3.20;71.40
32296;DHT22;18781;51.550;5.418;2022-12-17T09:28:17;3.20;71.40
32296;DHT22;18781;51.550;5.418;2022-12-17T09:31:18;3.10;71.30
32296;DHT22;18781;51.550;5.418;2022-12-17T09:34:02;3.10;71.30
32296;DHT22;18781;51.550;5.418;2022-12-17T09:36:46;3.10;71.30
32296;DHT22;18781;51.550;5.418;2022-12-17T09:39:30;3.20;71.40
32296;DHT22;18781;51.550;5.418;2022-12-17T09:42:25;3.20;71.20
32296;DHT22;18781;51.550;5.418;2022-12-17T09:50:52;3.20;71.20
32296;DHT22;18781;51.550;5.418;2022-12-17T09:53:56;3.20;71.20
32296;DHT22;18781;51.550;5.418;2022-12-17T09:56:42;3.20;71.30
32296;DHT22;18781;51.550;5.418;2022-12-17T09:59:32;3.20;71.20
32296;DHT22;18781;51.550;5.418;2022-12-17T10:02:22;3.20;71.20
32296;DHT22;18781;51.550;5.418;2022-12-17T10:05:24;3.20;71.30
32296;DHT22;18781;51.550;5.418;2022-12-17T10:08:13;3.20;71.30
32296;DHT22;18781;51.550;5.418;2022-12-17T10:11:08;3.20;71.40
32296;DHT22;18781;51.550;5.418;2022-12-17T10:13:54;3.20;71.30
32296;DHT22;18781;51.550;5.418;2022-12-17T10:16:44;3.20;71.20
32296;DHT22;18781;51.550;5.418;2022-12-17T10:19:31;3.20;71.20
32296;DHT22;18781;51.550;5.418;2022-12-17T10:22:18;3.20;71.20
32296;DHT22;18781;51.550;5.418;2022-12-17T10:25:13;3.20;71.20
32296;DHT22;18781;51.550;5.418;2022-12-17T10:28:05;3.20;71.20
32296;DHT22;18781;51.550;5.418;2022-12-17T10:30:49;3.20;71.10
32296;DHT22;18781;51.550;5.418;2022-12-17T10:33:38;3.20;71.10
32296;DHT22;18781;51.550;5.418;2022-12-17T10:36:24;3.20;71.20
32296;DHT22;18781;51.550;5.418;2022-12-17T10:39:17;3.20;71.20
32296;DHT22;18781;51.550;5.418;2022-12-17T10:42:16;3.20;71.30
32296;DHT22;18781;51.550;5.418;2022-12-17T10:48:00;3.30;71.30
32296;DHT22;18781;51.550;5.418;2022-12-17T10:50:45;3.30;71.10
32296;DHT22;18781;51.550;5.418;2022-12-17T10:53:29;3.30;70.90
32296;DHT22;18781;51.550;5.418;2022-12-17T10:56:23;3.30;70.90
32296;DHT22;18781;51.550;5.418;2022-12-17T10:59:34;3.30;70.90
32296;DHT22;18781;51.550;5.418;2022-12-17T11:02:24;3.30;71.00
32296;DHT22;18781;51.550;5.418;2022-12-17T11:05:27;3.30;71.00
32296;DHT22;18781;51.550;5.418;2022-12-17T11:08:13;3.30;71.00
32296;DHT22;18781;51.550;5.418;2022-12-17T11:11:03;3.30;71.00
32296;DHT22;18781;51.550;5.418;2022-12-17T11:13:50;3.30;71.00
32296;DHT22;18781;51.550;5.418;2022-12-17T11:16:40;3.30;71.30
32296;DHT22;18781;51.550;5.418;2022-12-17T11:19:42;3.30;71.00
32296;DHT22;18781;51.550;5.418;2022-12-17T11:22:47;3.30;71.10
32296;DHT22;18781;51.550;5.418;2022-12-17T11:25:55;3.30;71.10
32296;DHT22;18781;51.550;5.418;2022-12-17T11:28:41;3.30;71.10
32296;DHT22;18781;51.550;5.418;2022-12-17T11:35:04;3.30;70.90
32296;DHT22;18781;51.550;5.418;2022-12-17T11:37:57;3.40;70.90
32296;DHT22;18781;51.550;5.418;2022-12-17T11:40:50;3.40;70.80
32296;DHT22;18781;51.550;5.418;2022-12-17T11:50:20;3.40;71.10
32296;DHT22;18781;51.550;5.418;2022-12-17T11:53:38;3.40;71.00
32296;DHT22;18781;51.550;5.418;2022-12-17T11:56:36;3.40;70.80
32296;DHT22;18781;51.550;5.418;2022-12-17T12:11:39;3.50;70.80
32296;DHT22;18781;51.550;5.418;2022-12-17T12:20:21;3.50;70.70
32296;DHT22;18781;51.550;5.418;2022-12-17T12:26:36;3.50;70.30
32296;DHT22;18781;51.550;5.418;2022-12-17T12:30:01;3.50;70.40
32296;DHT22;18781;51.550;5.418;2022-12-17T12:36:00;3.50;70.60
32296;DHT22;18781;51.550;5.418;2022-12-17T12:38:50;3.50;70.60
32296;DHT22;18781;51.550;5.418;2022-12-17T12:41:52;3.60;70.80
32296;DHT22;18781;51.550;5.418;2022-12-17T12:53:27;3.60;70.90
32296;DHT22;18781;51.550;5.418;2022-12-17T12:56:44;3.60;70.30
32296;DHT22;18781;51.550;5.418;2022-12-17T12:59:30;3.60;70.30
32296;DHT22;18781;51.550;5.418;2022-12-17T13:02:22;3.60;70.20
32296;DHT22;18781;51.550;5.418;2022-12-17T13:05:27;3.60;70.10
32296;DHT22;18781;51.550;5.418;2022-12-17T13:10:35;3.60;69.80
32296;DHT22;18781;51.550;5.418;2022-12-17T13:13:33;3.60;70.00
32296;DHT22;18781;51.550;5.418;2022-12-17T13:16:27;3.60;69.80
32296;DHT22;18781;51.550;5.418;2022-12-17T13:19:04;3.60;69.80
32296;DHT22;18781;51.550;5.418;2022-12-17T13:21:41;3.60;69.60
32296;DHT22;18781;51.550;5.418;2022-12-17T13:24:25;3.50;69.60
32296;DHT22;18781;51.550;5.418;2022-12-17T13:26:51;3.50;69.40
32296;DHT22;18781;51.550;5.418;2022-12-17T13:29:32;3.50;69.60
32296;DHT22;18781;51.550;5.418;2022-12-17T13:32:19;3.50;69.50
32296;DHT22;18781;51.550;5.418;2022-12-17T13:35:47;3.50;69.60
32296;DHT22;18781;51.550;5.418;2022-12-17T13:43:43;3.50;69.70
32296;DHT22;18781;51.550;5.418;2022-12-17T13:49:01;3.50;69.60
32296;DHT22;18781;51.550;5.418;2022-12-17T13:51:30;3.40;69.50
32296;DHT22;18781;51.550;5.418;2022-12-17T13:54:02;3.40;69.70
32296;DHT22;18781;51.550;5.418;2022-12-17T13:56:33;3.40;69.60
32296;DHT22;18781;51.550;5.418;2022-12-17T13:59:00;3.40;69.60
32296;DHT22;18781;51.550;5.418;2022-12-17T14:01:29;3.40;69.70
32296;DHT22;18781;51.550;5.418;2022-12-17T14:03:57;3.40;69.70
32296;DHT22;18781;51.550;5.418;2022-12-17T14:06:27;3.40;69.80
32296;DHT22;18781;51.550;5.418;2022-12-17T14:08:54;3.40;69.80
32296;DHT22;18781;51.550;5.418;2022-12-17T14:11:20;3.40;69.80
32296;DHT22;18781;51.550;5.418;2022-12-17T14:16:53;3.40;69.40
32296;DHT22;18781;51.550;5.418;2022-12-17T14:19:19;3.40;69.50
32296;DHT22;18781;51.550;5.418;2022-12-17T14:21:45;3.40;69.50
32296;DHT22;18781;51.550;5.418;2022-12-17T14:24:12;3.40;69.40
32296;DHT22;18781;51.550;5.418;2022-12-17T14:26:56;3.40;69.40
32296;DHT22;18781;51.550;5.418;2022-12-17T14:29:24;3.40;69.30
32296;DHT22;18781;51.550;5.418;2022-12-17T14:31:55;3.40;69.40
32296;DHT22;18781;51.550;5.418;2022-12-17T14:34:21;3.30;69.20
32296;DHT22;18781;51.550;5.418;2022-12-17T14:36:56;3.30;69.30
32296;DHT22;18781;51.550;5.418;2022-12-17T14:39:27;3.30;69.30
32296;DHT22;18781;51.550;5.418;2022-12-17T14:42:05;3.30;69.30
32296;DHT22;18781;51.550;5.418;2022-12-17T14:45:27;3.30;69.40
32296;DHT22;18781;51.550;5.418;2022-12-17T14:47:59;3.30;69.20
32296;DHT22;18781;51.550;5.418;2022-12-17T14:50:33;3.30;69.20
32296;DHT22;18781;51.550;5.418;2022-12-17T14:53:24;3.20;69.30
32296;DHT22;18781;51.550;5.418;2022-12-17T14:55:57;3.20;69.30
32296;DHT22;18781;51.550;5.418;2022-12-17T14:58:25;3.20;69.30
32296;DHT22;18781;51.550;5.418;2022-12-17T15:01:11;3.20;69.30
32296;DHT22;18781;51.550;5.418;2022-12-17T15:03:39;3.20;69.10
32296;DHT22;18781;51.550;5.418;2022-12-17T15:06:08;3.20;69.20
32296;DHT22;18781;51.550;5.418;2022-12-17T15:08:45;3.20;69.10
32296;DHT22;18781;51.550;5.418;2022-12-17T15:11:14;3.10;68.80
32296;DHT22;18781;51.550;5.418;2022-12-17T15:13:40;3.10;68.80
32296;DHT22;18781;51.550;5.418;2022-12-17T15:16:06;3.10;68.80
32296;DHT22;18781;51.550;5.418;2022-12-17T15:18:32;3.00;68.90
32296;DHT22;18781;51.550;5.418;2022-12-17T15:20:57;3.00;69.10
32296;DHT22;18781;51.550;5.418;2022-12-17T15:23:24;3.00;69.10
32296;DHT22;18781;51.550;5.418;2022-12-17T15:25:52;3.00;69.10
32296;DHT22;18781;51.550;5.418;2022-12-17T15:28:18;3.00;69.20
32296;DHT22;18781;51.550;5.418;2022-12-17T15:30:45;2.90;69.30
32296;DHT22;18781;51.550;5.418;2022-12-17T15:33:11;3.00;69.40
32296;DHT22;18781;51.550;5.418;2022-12-17T15:35:38;3.00;69.50
32296;DHT22;18781;51.550;5.418;2022-12-17T15:38:04;2.90;69.50
32296;DHT22;18781;51.550;5.418;2022-12-17T15:40:30;2.90;69.50
32296;DHT22;18781;51.550;5.418;2022-12-17T15:42:56;2.90;69.40
32296;DHT22;18781;51.550;5.418;2022-12-17T15:48:06;2.90;69.40
32296;DHT22;18781;51.550;5.418;2022-12-17T15:50:32;2.90;69.40
32296;DHT22;18781;51.550;5.418;2022-12-17T15:52:57;2.90;69.20
32296;DHT22;18781;51.550;5.418;2022-12-17T15:55:23;2.80;69.30
32296;DHT22;18781;51.550;5.418;2022-12-17T15:57:48;2.80;69.30
32296;DHT22;18781;51.550;5.418;2022-12-17T16:00:14;2.80;69.40
32296;DHT22;18781;51.550;5.418;2022-12-17T16:02:40;2.80;69.40
32296;DHT22;18781;51.550;5.418;2022-12-17T16:05:06;2.80;69.50
32296;DHT22;18781;51.550;5.418;2022-12-17T16:07:32;2.80;69.50
32296;DHT22;18781;51.550;5.418;2022-12-17T16:09:58;2.70;69.50
32296;DHT22;18781;51.550;5.418;2022-12-17T16:12:23;2.70;70.00
32296;DHT22;18781;51.550;5.418;2022-12-17T16:14:49;2.70;69.50
32296;DHT22;18781;51.550;5.418;2022-12-17T16:17:14;2.70;69.40
32296;DHT22;18781;51.550;5.418;2022-12-17T16:19:40;2.70;69.40
32296;DHT22;18781;51.550;5.418;2022-12-17T16:22:06;2.70;69.20
32296;DHT22;18781;51.550;5.418;2022-12-17T16:24:31;2.70;69.10
32296;DHT22;18781;51.550;5.418;2022-12-17T16:26:57;2.60;69.10
32296;DHT22;18781;51.550;5.418;2022-12-17T16:29:22;2.60;69.10
32296;DHT22;18781;51.550;5.418;2022-12-17T16:31:48;2.60;69.10
32296;DHT22;18781;51.550;5.418;2022-12-17T16:34:14;2.50;69.10
32296;DHT22;18781;51.550;5.418;2022-12-17T16:36:40;2.50;69.30
32296;DHT22;18781;51.550;5.418;2022-12-17T16:39:06;2.50;69.30
32296;DHT22;18781;51.550;5.418;2022-12-17T16:41:32;2.50;69.40
32296;DHT22;18781;51.550;5.418;2022-12-17T16:43:58;2.50;69.60
32296;DHT22;18781;51.550;5.418;2022-12-17T16:46:26;2.50;69.60
32296;DHT22;18781;51.550;5.418;2022-12-17T16:48:54;2.50;69.60
32296;DHT22;18781;51.550;5.418;2022-12-17T16:51:21;2.50;69.60
32296;DHT22;18781;51.550;5.418;2022-12-17T16:53:46;2.50;69.70
32296;DHT22;18781;51.550;5.418;2022-12-17T16:56:17;2.50;69.70
32296;DHT22;18781;51.550;5.418;2022-12-17T16:58:43;2.50;69.80
32296;DHT22;18781;51.550;5.418;2022-12-17T17:01:09;2.50;69.70
32296;DHT22;18781;51.550;5.418;2022-12-17T17:03:39;2.50;69.80
32296;DHT22;18781;51.550;5.418;2022-12-17T17:06:05;2.50;69.70
32296;DHT22;18781;51.550;5.418;2022-12-17T17:08:35;2.50;69.70
32296;DHT22;18781;51.550;5.418;2022-12-17T17:11:08;2.50;69.70
32296;DHT22;18781;51.550;5.418;2022-12-17T17:13:35;2.50;69.60
32296;DHT22;18781;51.550;5.418;2022-12-17T17:16:00;2.40;69.50
32296;DHT22;18781;51.550;5.418;2022-12-17T17:18:26;2.40;70.10
32296;DHT22;18781;51.550;5.418;2022-12-17T17:20:53;2.40;69.50
32296;DHT22;18781;51.550;5.418;2022-12-17T17:23:20;2.40;69.50
32296;DHT22;18781;51.550;5.418;2022-12-17T17:25:45;2.40;69.50
32296;DHT22;18781;51.550;5.418;2022-12-17T17:28:11;2.40;69.60
32296;DHT22;18781;51.550;5.418;2022-12-17T17:30:36;2.40;69.60
32296;DHT22;18781;51.550;5.418;2022-12-17T17:33:02;2.30;69.50
32296;DHT22;18781;51.550;5.418;2022-12-17T17:35:28;2.30;69.50
32296;DHT22;18781;51.550;5.418;2022-12-17T17:37:53;2.30;69.30
32296;DHT22;18781;51.550;5.418;2022-12-17T17:40:19;2.30;69.20
32296;DHT22;18781;51.550;5.418;2022-12-17T17:42:44;2.30;69.20
32296;DHT22;18781;51.550;5.418;2022-12-17T17:45:10;2.20;69.20
32296;DHT22;18781;51.550;5.418;2022-12-17T17:47:35;2.20;69.30
32296;DHT22;18781;51.550;5.418;2022-12-17T17:50:01;2.20;69.40
32296;DHT22;18781;51.550;5.418;2022-12-17T17:52:27;2.20;69.50
32296;DHT22;18781;51.550;5.418;2022-12-17T17:54:52;2.10;69.50
32296;DHT22;18781;51.550;5.418;2022-12-17T17:57:18;2.10;69.70
32296;DHT22;18781;51.550;5.418;2022-12-17T17:59:44;2.10;69.80
32296;DHT22;18781;51.550;5.418;2022-12-17T18:02:10;2.10;69.80
32296;DHT22;18781;51.550;5.418;2022-12-17T18:04:35;2.10;69.80
32296;DHT22;18781;51.550;5.418;2022-12-17T18:07:01;2.10;69.80
32296;DHT22;18781;51.550;5.418;2022-12-17T18:09:27;2.10;69.70
32296;DHT22;18781;51.550;5.418;2022-12-17T18:11:53;2.10;69.70
32296;DHT22;18781;51.550;5.418;2022-12-17T18:14:18;2.10;69.80
32296;DHT22;18781;51.550;5.418;2022-12-17T18:16:45;2.10;69.90
32296;DHT22;18781;51.550;5.418;2022-12-17T18:19:19;2.10;70.40
32296;DHT22;18781;51.550;5.418;2022-12-17T18:21:46;2.10;70.00
32296;DHT22;18781;51.550;5.418;2022-12-17T18:24:17;2.20;70.00
32296;DHT22;18781;51.550;5.418;2022-12-17T18:26:44;2.10;69.80
32296;DHT22;18781;51.550;5.418;2022-12-17T18:29:16;2.20;69.80
32296;DHT22;18781;51.550;5.418;2022-12-17T18:31:42;2.10;69.70